Time;durP1;ratioP1;P1;durP2;ratioP2;P2;SDS_P1;SDS_P2;PMS_P1;PMS_P2;Temp;Humidity;BMP_temperature;BMP_pressure;BME280_temperature;BME280_humidity;BME280_pressure;Samples;Min_cycle;Max_cycle;Signal;HPM_P1;HPM_P2
2021/06/08 00:00:36;;;;;;;0.20;0.10;;;21.70;53.30;;;;;;4977119;28;20042;-85
2021/06/08 00:03:03;;;;;;;2.55;0.20;;;21.60;54.00;;;;;;4983342;28;20035;-85
2021/06/08 00:05:29;;;;;;;0.55;0.15;;;21.60;53.50;;;;;;4975670;28;20037;-85
2021/06/08 00:07:56;;;;;;;0.20;0.00;;;21.50;53.50;;;;;;4972403;28;20023;-85
2021/06/08 00:10:22;;;;;;;0.05;0.00;;;21.50;53.60;;;;;;5008791;28;20042;-84
2021/06/08 00:12:48;;;;;;;0.60;0.10;;;21.40;53.60;;;;;;4992509;28;20031;-85
2021/06/08 00:15:14;;;;;;;0.13;0.00;;;21.50;53.80;;;;;;5007900;28;20616;-84
2021/06/08 00:17:40;;;;;;;0.05;0.00;;;21.40;53.80;;;;;;4972062;28;20042;-85
2021/06/08 00:20:07;;;;;;;0.32;0.00;;;21.40;54.00;;;;;;4955492;28;20214;-84
2021/06/08 00:22:33;;;;;;;1.08;0.08;;;21.40;54.00;;;;;;4972194;28;20070;-85
2021/06/08 00:24:59;;;;;;;0.30;0.10;;;21.30;54.00;;;;;;4987549;28;20461;-84
2021/06/08 00:27:25;;;;;;;0.40;0.10;;;21.30;54.10;;;;;;4978135;28;20027;-84
2021/06/08 00:29:52;;;;;;;0.03;0.00;;;21.30;54.10;;;;;;4994072;28;20027;-84
2021/06/08 00:32:18;;;;;;;0.45;0.08;;;21.30;54.20;;;;;;4992637;28;20500;-84
2021/06/08 00:34:44;;;;;;;0.45;0.03;;;21.20;54.20;;;;;;4964159;28;20046;-85
2021/06/08 00:37:10;;;;;;;0.17;0.05;;;21.20;54.40;;;;;;4977928;28;20050;-85
2021/06/08 00:39:36;;;;;;;0.57;0.10;;;21.10;54.40;;;;;;4958498;28;20046;-85
2021/06/08 00:42:02;;;;;;;1.02;0.30;;;21.10;54.50;;;;;;4976983;28;20034;-84
2021/06/08 00:44:28;;;;;;;0.15;0.00;;;21.00;54.60;;;;;;4975173;28;20026;-85
2021/06/08 00:46:54;;;;;;;0.68;0.08;;;21.00;54.60;;;;;;4971686;28;20046;-85
2021/06/08 00:49:21;;;;;;;0.38;0.10;;;21.00;54.70;;;;;;4973397;28;20057;-85
2021/06/08 00:51:47;;;;;;;0.10;0.00;;;21.00;54.70;;;;;;4971550;28;20034;-84
2021/06/08 00:54:13;;;;;;;0.52;0.10;;;20.90;54.80;;;;;;4971132;28;20038;-86
2021/06/08 00:56:41;;;;;;;0.20;0.00;;;20.90;54.90;;;;;;4972432;28;20038;-85
2021/06/08 00:59:07;;;;;;;0.52;0.00;;;20.90;55.00;;;;;;4973009;28;20038;-86
2021/06/08 01:01:33;;;;;;;0.20;0.10;;;20.80;55.00;;;;;;4986881;28;20038;-85
2021/06/08 01:04:03;;;;;;;0.10;0.00;;;20.80;55.10;;;;;;5009501;28;20392;-85
2021/06/08 01:06:33;;;;;;;0.28;0.10;;;20.80;55.10;;;;;;4980423;28;20035;-85
2021/06/08 01:09:00;;;;;;;0.28;0.00;;;20.90;55.30;;;;;;4978853;28;20034;-86
2021/06/08 01:11:26;;;;;;;0.00;0.00;;;20.80;55.20;;;;;;4961299;28;20038;-86
2021/06/08 01:13:52;;;;;;;0.35;0.13;;;20.90;55.20;;;;;;4975713;28;20034;-86
2021/06/08 01:16:18;;;;;;;0.30;0.20;;;20.80;55.20;;;;;;5011774;28;20062;-85
2021/06/08 01:18:45;;;;;;;2.05;0.20;;;20.80;55.30;;;;;;4990855;28;20031;-86
2021/06/08 01:21:11;;;;;;;0.30;0.15;;;20.80;55.40;;;;;;4975812;28;20397;-85
2021/06/08 01:23:38;;;;;;;0.05;0.00;;;20.80;55.50;;;;;;4974650;28;20042;-85
2021/06/08 01:26:05;;;;;;;0.00;0.00;;;20.70;55.60;;;;;;4974678;28;20038;-85
2021/06/08 01:28:31;;;;;;;0.65;0.13;;;20.70;55.60;;;;;;4975300;28;20473;-83
2021/06/08 01:30:58;;;;;;;0.30;0.10;;;20.70;55.70;;;;;;4974350;28;20043;-85
2021/06/08 01:33:25;;;;;;;0.32;0.10;;;20.60;55.80;;;;;;4990452;28;20031;-85
2021/06/08 01:35:52;;;;;;;0.73;0.10;;;20.60;55.90;;;;;;4990189;28;20038;-84
2021/06/08 01:38:19;;;;;;;1.55;0.38;;;20.50;55.90;;;;;;4975597;28;20487;-85
2021/06/08 01:40:46;;;;;;;0.52;0.10;;;20.50;56.00;;;;;;4974637;28;20424;-84
2021/06/08 01:43:16;;;;;;;0.40;0.13;;;20.50;56.20;;;;;;4989123;28;20038;-85
2021/06/08 01:45:42;;;;;;;0.10;0.00;;;20.40;56.20;;;;;;4989607;28;20050;-85
2021/06/08 01:48:08;;;;;;;0.47;0.20;;;20.40;56.30;;;;;;4974299;28;20041;-85
2021/06/08 01:50:35;;;;;;;0.40;0.10;;;20.40;56.40;;;;;;4973917;28;20031;-86
2021/06/08 01:53:12;;;;;;;3.03;0.30;;;20.30;56.50;;;;;;4974352;28;20019;-85
2021/06/08 01:55:42;;;;;;;0.40;0.10;;;20.20;56.60;;;;;;4987479;28;20043;-83
2021/06/08 01:58:53;;;;;;;0.53;0.20;;;20.20;56.70;;;;;;4974463;28;20031;-85
2021/06/08 02:01:21;;;;;;;0.17;0.10;;;20.20;56.80;;;;;;4952754;28;20047;-85
2021/06/08 02:04:03;;;;;;;1.48;0.20;;;20.10;56.70;;;;;;4932322;28;20039;-85
2021/06/08 02:06:34;;;;;;;0.30;0.00;;;20.10;56.80;;;;;;4932738;29;20050;-85
2021/06/08 02:09:10;;;;;;;0.43;0.03;;;20.10;56.80;;;;;;4949808;28;20089;-84
2021/06/08 02:11:52;;;;;;;0.47;0.10;;;20.10;56.90;;;;;;4932853;29;20043;-84
2021/06/08 02:14:24;;;;;;;0.10;0.00;;;20.00;56.90;;;;;;4932962;29;20044;-85
2021/06/08 02:16:53;;;;;;;0.30;0.13;;;20.00;57.00;;;;;;4933708;28;20147;-85
2021/06/08 02:19:20;;;;;;;0.00;0.00;;;20.00;57.00;;;;;;4950645;29;20051;-85
2021/06/08 02:21:52;;;;;;;0.10;0.00;;;19.90;57.10;;;;;;4932853;29;20038;-84
2021/06/08 02:24:20;;;;;;;0.43;0.08;;;20.00;57.20;;;;;;4900481;29;20044;-85
2021/06/08 02:26:46;;;;;;;0.28;0.10;;;19.90;57.20;;;;;;4923652;29;20472;-85
2021/06/08 02:29:13;;;;;;;0.08;0.00;;;19.90;57.20;;;;;;4917594;29;20046;-85
2021/06/08 02:31:40;;;;;;;0.00;0.00;;;19.90;57.20;;;;;;4934295;28;20031;-85
2021/06/08 02:34:06;;;;;;;0.20;0.03;;;19.90;57.30;;;;;;4932340;29;20059;-85
2021/06/08 02:36:32;;;;;;;0.75;0.10;;;19.90;57.40;;;;;;4932274;29;20104;-83
2021/06/08 02:38:58;;;;;;;0.10;0.00;;;19.80;57.40;;;;;;4971850;28;20407;-85
2021/06/08 02:41:24;;;;;;;0.35;0.10;;;19.80;57.50;;;;;;4973204;28;20035;-85
2021/06/08 02:43:51;;;;;;;0.40;0.10;;;19.80;57.60;;;;;;4973265;28;20384;-85
2021/06/08 02:46:17;;;;;;;0.52;0.13;;;19.70;57.60;;;;;;4953793;28;20054;-85
2021/06/08 02:48:44;;;;;;;0.47;0.17;;;19.70;57.70;;;;;;4972782;28;20027;-85
2021/06/08 02:51:10;;;;;;;0.95;0.30;;;19.70;57.70;;;;;;4973074;28;20042;-85
2021/06/08 02:53:36;;;;;;;0.75;0.20;;;19.70;57.80;;;;;;4989053;28;20034;-85
2021/06/08 02:56:03;;;;;;;0.15;0.08;;;19.70;57.90;;;;;;4957131;28;20043;-85
2021/06/08 02:58:29;;;;;;;0.10;0.00;;;19.60;57.90;;;;;;4985585;28;20078;-85
2021/06/08 03:00:55;;;;;;;1.13;0.28;;;19.60;57.90;;;;;;4979325;28;20503;-85
2021/06/08 03:03:26;;;;;;;0.17;0.10;;;19.60;58.00;;;;;;4965501;28;20035;-85
2021/06/08 03:06:11;;;;;;;0.77;0.20;;;19.60;58.70;;;;;;4977006;28;20034;-83
2021/06/08 03:08:59;;;;;;;0.13;0.05;;;19.50;58.20;;;;;;4977081;28;20030;-85
2021/06/08 03:11:51;;;;;;;0.30;0.00;;;19.50;58.20;;;;;;4975947;28;20487;-83
2021/06/08 03:14:18;;;;;;;0.40;0.00;;;19.40;58.30;;;;;;4961482;28;20026;-85
2021/06/08 03:16:49;;;;;;;0.17;0.00;;;19.40;58.40;;;;;;4974337;28;20477;-85
2021/06/08 03:19:19;;;;;;;0.20;0.00;;;19.30;58.40;;;;;;4987181;28;20034;-84
2021/06/08 03:21:45;;;;;;;0.57;0.32;;;19.20;58.50;;;;;;4952557;28;20035;-85
2021/06/08 03:24:14;;;;;;;0.40;0.10;;;19.20;58.60;;;;;;4966060;28;20392;-84
2021/06/08 03:26:40;;;;;;;0.75;0.10;;;19.10;58.80;;;;;;4988559;28;20480;-85
2021/06/08 03:29:08;;;;;;;1.17;0.20;;;19.10;58.70;;;;;;4972377;28;20049;-85
2021/06/08 03:31:39;;;;;;;0.00;0.00;;;19.10;58.80;;;;;;4984062;28;20496;-84
2021/06/08 03:34:05;;;;;;;0.30;0.13;;;19.10;58.90;;;;;;5008332;28;20057;-85
2021/06/08 03:36:31;;;;;;;0.20;0.00;;;19.10;58.90;;;;;;4992759;28;20023;-85
2021/06/08 03:38:58;;;;;;;2.03;0.32;;;19.00;58.90;;;;;;5009076;28;20484;-85
2021/06/08 03:41:24;;;;;;;0.30;0.10;;;19.10;59.00;;;;;;4975123;28;20035;-85
2021/06/08 03:43:50;;;;;;;1.23;0.40;;;19.00;59.00;;;;;;4973470;28;20035;-85
2021/06/08 03:46:16;;;;;;;1.33;0.17;;;19.00;59.10;;;;;;5008357;28;20047;-85
2021/06/08 03:48:42;;;;;;;0.28;0.10;;;19.00;59.20;;;;;;4953061;28;20046;-85
2021/06/08 03:51:09;;;;;;;2.40;0.32;;;19.00;59.20;;;;;;4964848;28;20039;-85
2021/06/08 03:53:38;;;;;;;0.32;0.10;;;19.00;59.30;;;;;;4971973;28;20480;-85
2021/06/08 03:56:09;;;;;;;0.40;0.00;;;19.00;59.30;;;;;;4972198;28;20023;-85
2021/06/08 03:58:35;;;;;;;0.40;0.00;;;19.00;59.30;;;;;;4956883;28;20413;-83
2021/06/08 04:01:02;;;;;;;2.97;0.20;;;19.00;59.30;;;;;;4971416;28;20448;-86
2021/06/08 04:03:28;;;;;;;6.60;0.20;;;19.00;59.30;;;;;;4988257;28;20486;-86
2021/06/08 04:05:54;;;;;;;0.30;0.20;;;19.00;59.40;;;;;;4955937;28;20049;-85
2021/06/08 04:08:20;;;;;;;0.82;0.38;;;19.00;59.40;;;;;;4972083;28;20019;-85
2021/06/08 04:10:46;;;;;;;1.20;0.40;;;19.00;59.50;;;;;;4971873;28;20031;-84
2021/06/08 04:13:12;;;;;;;1.35;0.45;;;18.90;59.50;;;;;;4972242;28;20042;-84
2021/06/08 04:15:38;;;;;;;0.17;0.10;;;18.90;59.60;;;;;;4975944;28;20042;-85
2021/06/08 04:18:07;;;;;;;0.35;0.10;;;18.80;59.70;;;;;;4982936;28;20031;-81
2021/06/08 04:20:33;;;;;;;0.30;0.10;;;18.80;59.80;;;;;;4976075;28;20038;-84
2021/06/08 04:23:01;;;;;;;1.35;0.35;;;18.80;59.90;;;;;;4971976;28;20026;-84
2021/06/08 04:25:27;;;;;;;0.22;0.13;;;18.80;60.00;;;;;;4973660;28;20400;-85
2021/06/08 04:27:53;;;;;;;0.98;0.20;;;18.70;59.90;;;;;;4992483;28;20031;-85
2021/06/08 04:30:20;;;;;;;0.73;0.20;;;18.80;60.00;;;;;;4991421;28;20035;-85
2021/06/08 04:32:46;;;;;;;0.28;0.10;;;18.80;60.00;;;;;;4988728;28;20044;-84
2021/06/08 04:35:13;;;;;;;1.17;0.30;;;18.80;60.10;;;;;;4975547;28;20042;-86
2021/06/08 04:37:39;;;;;;;0.20;0.10;;;18.80;60.10;;;;;;4975693;28;20031;-85
2021/06/08 04:40:08;;;;;;;1.02;0.25;;;18.80;60.20;;;;;;4992135;28;20488;-84
2021/06/08 04:42:44;;;;;;;0.40;0.10;;;18.70;60.20;;;;;;4991358;28;20042;-85
2021/06/08 04:45:11;;;;;;;0.40;0.28;;;18.70;60.40;;;;;;4989265;28;20038;-85
2021/06/08 04:47:38;;;;;;;1.35;0.30;;;18.60;60.50;;;;;;4959326;28;20050;-85
2021/06/08 04:50:09;;;;;;;1.35;0.10;;;18.60;60.60;;;;;;4975299;28;20034;-85
2021/06/08 04:52:35;;;;;;;1.45;0.22;;;18.60;60.60;;;;;;4975663;28;20034;-84
2021/06/08 04:55:01;;;;;;;2.17;0.52;;;18.60;60.60;;;;;;4975540;28;20034;-85
2021/06/08 04:57:27;;;;;;;3.05;0.70;;;18.70;60.60;;;;;;4991405;28;20034;-85
2021/06/08 05:00:04;;;;;;;0.82;0.30;;;18.70;60.70;;;;;;4958825;28;20399;-85
2021/06/08 05:02:44;;;;;;;2.10;0.40;;;18.80;60.70;;;;;;4990872;28;20039;-85
2021/06/08 05:05:13;;;;;;;0.85;0.20;;;18.90;60.60;;;;;;4961930;28;20025;-84
2021/06/08 05:07:44;;;;;;;9.57;0.38;;;19.10;60.50;;;;;;4977806;28;20031;-85
2021/06/08 05:10:10;;;;;;;;;;;19.20;60.30;;;;;;4979838;28;20040;-86
2021/06/08 05:12:36;;;;;;;1.17;0.47;;;19.40;60.20;;;;;;4995469;28;19921;-84
2021/06/08 05:15:03;;;;;;;0.43;0.10;;;19.50;59.90;;;;;;4994403;28;20034;-84
2021/06/08 05:17:29;;;;;;;0.55;0.10;;;19.70;59.80;;;;;;4974877;28;20050;-85
2021/06/08 05:19:55;;;;;;;2.63;0.40;;;19.90;59.60;;;;;;4958789;28;20043;-84
2021/06/08 05:22:22;;;;;;;0.35;0.10;;;20.00;59.40;;;;;;4975163;28;20079;-85
2021/06/08 05:24:50;;;;;;;0.43;0.20;;;20.30;59.20;;;;;;4974706;28;20049;-84
2021/06/08 05:27:16;;;;;;;0.43;0.15;;;20.50;59.00;;;;;;4990575;28;20027;-84
2021/06/08 05:29:42;;;;;;;0.20;0.00;;;20.60;58.90;;;;;;4990468;28;20485;-85
2021/06/08 05:32:08;;;;;;;2.10;0.32;;;20.70;58.80;;;;;;4986936;28;20037;-85
2021/06/08 05:34:34;;;;;;;1.13;0.22;;;20.80;58.70;;;;;;4978237;28;20054;-83
2021/06/08 05:37:08;;;;;;;0.20;0.00;;;20.90;58.80;;;;;;4979741;28;20026;-84
2021/06/08 05:39:37;;;;;;;1.42;0.43;;;20.90;58.70;;;;;;4978676;28;20035;-85
2021/06/08 05:42:06;;;;;;;1.42;0.30;;;21.00;58.70;;;;;;4978555;28;20038;-85
2021/06/08 05:44:34;;;;;;;2.22;0.22;;;21.10;58.60;;;;;;4980298;28;20484;-84
2021/06/08 05:47:06;;;;;;;0.50;0.20;;;21.20;58.50;;;;;;4974911;28;20053;-84
2021/06/08 05:49:33;;;;;;;0.75;0.35;;;21.20;58.60;;;;;;5003394;28;20643;-84
2021/06/08 05:51:59;;;;;;;1.35;0.28;;;21.20;58.70;;;;;;4990603;28;20030;-85
2021/06/08 05:54:27;;;;;;;0.70;0.20;;;21.10;58.80;;;;;;4974227;28;20023;-84
2021/06/08 05:56:53;;;;;;;1.65;0.80;;;21.20;58.70;;;;;;4989810;28;20034;-84
2021/06/08 05:59:19;;;;;;;0.40;0.10;;;21.30;58.70;;;;;;4974060;28;20034;-85
2021/06/08 06:01:45;;;;;;;1.02;0.50;;;21.40;58.50;;;;;;4985599;28;20030;-85
2021/06/08 06:04:12;;;;;;;0.47;0.15;;;21.50;58.40;;;;;;5011206;28;20053;-85
2021/06/08 06:06:39;;;;;;;1.27;0.20;;;21.60;58.10;;;;;;4994430;28;20046;-85
2021/06/08 06:09:05;;;;;;;0.55;0.13;;;21.70;58.00;;;;;;4978292;28;20030;-85
2021/06/08 06:11:31;;;;;;;0.30;0.10;;;21.80;57.90;;;;;;4978497;28;20317;-85
2021/06/08 06:14:01;;;;;;;0.20;0.00;;;21.90;57.80;;;;;;4974018;28;20033;-84
2021/06/08 06:16:30;;;;;;;1.42;0.38;;;21.90;57.80;;;;;;5004445;28;20034;-85
2021/06/08 06:18:57;;;;;;;0.30;0.00;;;22.00;57.80;;;;;;4962443;28;20054;-85
2021/06/08 06:21:25;;;;;;;0.20;0.10;;;22.00;57.70;;;;;;4977936;28;20038;-85
2021/06/08 06:23:51;;;;;;;0.08;0.08;;;22.10;57.60;;;;;;4978041;28;20041;-81
2021/06/08 06:26:17;;;;;;;0.65;0.30;;;22.10;57.60;;;;;;4975131;28;20484;-85
2021/06/08 06:28:43;;;;;;;1.83;0.98;;;22.10;57.50;;;;;;4959952;28;20038;-85
2021/06/08 06:31:10;;;;;;;2.35;0.40;;;22.20;57.50;;;;;;4993956;28;20031;-84
2021/06/08 06:33:36;;;;;;;1.98;0.20;;;22.10;57.50;;;;;;4954295;28;20039;-85
2021/06/08 06:36:03;;;;;;;2.22;0.43;;;22.20;57.40;;;;;;4981967;28;20506;-85
2021/06/08 06:38:29;;;;;;;1.65;0.30;;;22.20;57.30;;;;;;4973436;28;20042;-85
2021/06/08 06:40:55;;;;;;;1.58;0.20;;;22.30;57.20;;;;;;4973076;28;20050;-85
2021/06/08 06:43:25;;;;;;;0.40;0.22;;;22.40;57.00;;;;;;4990060;28;20049;-86
2021/06/08 06:45:52;;;;;;;6.05;0.70;;;22.40;56.80;;;;;;4972162;28;20050;-87
2021/06/08 06:48:18;;;;;;;0.88;0.22;;;22.50;56.90;;;;;;4953990;28;20392;-84
2021/06/08 06:50:45;;;;;;;0.60;0.10;;;22.60;56.90;;;;;;4963537;28;20035;-85
2021/06/08 06:53:11;;;;;;;0.40;0.10;;;22.60;56.70;;;;;;4973091;28;20030;-85
2021/06/08 06:55:38;;;;;;;0.50;0.10;;;22.80;56.50;;;;;;4972836;28;20039;-85
2021/06/08 06:58:04;;;;;;;1.05;0.20;;;22.80;56.30;;;;;;4989382;28;20034;-85
2021/06/08 07:00:30;;;;;;;0.82;0.20;;;22.80;56.30;;;;;;4972375;28;20049;-86
2021/06/08 07:02:57;;;;;;;0.00;0.00;;;22.90;56.50;;;;;;4988894;28;20038;-86
2021/06/08 07:05:30;;;;;;;0.73;0.20;;;22.90;56.30;;;;;;4972926;28;20038;-86
2021/06/08 07:07:56;;;;;;;0.65;0.20;;;23.00;56.20;;;;;;4972912;28;20026;-85
2021/06/08 07:10:25;;;;;;;0.70;0.13;;;23.00;56.20;;;;;;4972999;28;20034;-85
2021/06/08 07:12:52;;;;;;;0.50;0.22;;;23.10;56.20;;;;;;4972665;28;20495;-85
2021/06/08 07:15:21;;;;;;;0.10;0.00;;;23.10;56.00;;;;;;4972115;28;20049;-85
2021/06/08 07:17:47;;;;;;;0.57;0.10;;;23.30;55.80;;;;;;4972737;28;20384;-85
2021/06/08 07:20:16;;;;;;;0.45;0.00;;;23.40;55.60;;;;;;4956529;28;20616;-86
2021/06/08 07:22:43;;;;;;;0.80;0.28;;;23.50;55.30;;;;;;4972653;28;20046;-86
2021/06/08 07:25:10;;;;;;;0.57;0.25;;;23.60;55.30;;;;;;4953441;28;20394;-86
2021/06/08 07:27:36;;;;;;;0.38;0.10;;;23.70;55.30;;;;;;4972428;28;20492;-86
2021/06/08 07:30:04;;;;;;;1.55;0.10;;;23.80;55.10;;;;;;4988549;28;20033;-85
2021/06/08 07:32:37;;;;;;;1.00;0.20;;;24.00;54.90;;;;;;5004130;28;20027;-86
2021/06/08 07:35:07;;;;;;;0.98;0.20;;;24.20;54.70;;;;;;4971731;28;20401;-87
2021/06/08 07:37:34;;;;;;;0.40;0.20;;;24.30;54.40;;;;;;4973651;28;20034;-85
2021/06/08 07:40:11;;;;;;;0.47;0.20;;;24.50;54.30;;;;;;4972142;28;20046;-87
2021/06/08 07:42:51;;;;;;;0.90;0.20;;;24.60;54.00;;;;;;4972102;28;20035;-86
2021/06/08 07:45:44;;;;;;;0.35;0.10;;;24.80;53.90;;;;;;4971714;28;20057;-87
2021/06/08 07:48:14;;;;;;;0.65;0.10;;;25.00;53.70;;;;;;4970134;28;20073;-86
2021/06/08 07:50:41;;;;;;;0.20;0.05;;;25.10;53.50;;;;;;4972218;28;20029;-86
2021/06/08 07:53:07;;;;;;;0.32;0.10;;;25.10;53.40;;;;;;4971760;28;22137;-86
2021/06/08 07:55:35;;;;;;;0.80;0.25;;;25.20;53.30;;;;;;4972540;28;20042;-87
2021/06/08 07:58:02;;;;;;;0.55;0.10;;;25.20;53.20;;;;;;5003759;28;20023;-86
2021/06/08 08:00:28;;;;;;;0.65;0.22;;;25.30;53.20;;;;;;4987128;28;20406;-86
2021/06/08 08:02:54;;;;;;;0.73;0.40;;;25.50;52.90;;;;;;4987806;28;20050;-86
2021/06/08 08:05:22;;;;;;;0.70;0.40;;;25.70;52.90;;;;;;4972043;28;20050;-86
2021/06/08 08:07:49;;;;;;;0.63;0.20;;;25.80;52.60;;;;;;4974049;28;20027;-85
2021/06/08 08:10:15;;;;;;;3.28;0.35;;;26.10;53.00;;;;;;4979117;28;20026;-86
2021/06/08 08:12:42;;;;;;;1.15;0.22;;;26.20;52.20;;;;;;4978318;28;20034;-87
2021/06/08 08:15:09;;;;;;;0.45;0.10;;;26.30;52.10;;;;;;4993860;28;20036;-85
2021/06/08 08:17:36;;;;;;;0.40;0.13;;;26.40;52.00;;;;;;4978027;28;20050;-86
2021/06/08 08:20:05;;;;;;;0.57;0.20;;;26.40;51.80;;;;;;4963148;28;20365;-87
2021/06/08 08:22:31;;;;;;;0.30;0.08;;;26.50;51.90;;;;;;4974819;28;20038;-87
2021/06/08 08:24:57;;;;;;;0.30;0.10;;;26.60;51.80;;;;;;4978126;28;20476;-86
2021/06/08 08:27:25;;;;;;;4.35;0.35;;;26.70;51.60;;;;;;4978142;28;20046;-87
2021/06/08 08:29:51;;;;;;;0.40;0.20;;;26.80;51.30;;;;;;4978244;28;20033;-87
2021/06/08 08:32:18;;;;;;;0.82;0.22;;;26.80;51.30;;;;;;4991778;28;20583;-87
2021/06/08 08:34:44;;;;;;;1.02;0.10;;;26.90;51.30;;;;;;4980469;28;20034;-86
2021/06/08 08:37:10;;;;;;;0.90;0.30;;;27.00;51.10;;;;;;4983825;28;20476;-87
2021/06/08 08:39:37;;;;;;;0.90;0.32;;;27.00;51.00;;;;;;4982482;28;20045;-87
2021/06/08 08:42:05;;;;;;;3.20;0.30;;;27.00;51.00;;;;;;4982229;28;20039;-87
2021/06/08 08:44:31;;;;;;;0.55;0.20;;;27.10;50.90;;;;;;4982996;28;20034;-87
2021/06/08 08:46:57;;;;;;;0.60;0.10;;;27.20;50.70;;;;;;4977726;28;20070;-87
2021/06/08 08:49:25;;;;;;;1.05;0.20;;;27.20;50.50;;;;;;4978621;28;20468;-87
2021/06/08 08:51:52;;;;;;;0.65;0.20;;;27.10;50.70;;;;;;4993724;28;20030;-87
2021/06/08 08:54:19;;;;;;;2.45;0.28;;;27.30;50.70;;;;;;4978001;28;20059;-87
2021/06/08 08:56:46;;;;;;;0.60;0.20;;;27.40;50.40;;;;;;4979056;28;20042;-86
2021/06/08 08:59:14;;;;;;;0.65;0.10;;;27.50;50.20;;;;;;4962267;28;20400;-87
2021/06/08 09:01:42;;;;;;;0.10;0.10;;;27.60;50.10;;;;;;4990712;28;20038;-83
2021/06/08 09:04:09;;;;;;;0.60;0.20;;;27.60;49.90;;;;;;4983637;28;20042;-87
2021/06/08 09:06:36;;;;;;;0.20;0.05;;;27.60;49.80;;;;;;4981817;28;20030;-86
2021/06/08 09:09:03;;;;;;;0.77;0.25;;;27.70;49.80;;;;;;4982080;28;20030;-87
2021/06/08 09:11:36;;;;;;;0.20;0.17;;;27.70;49.40;;;;;;4981473;28;20026;-87
2021/06/08 09:14:03;;;;;;;0.85;0.20;;;27.80;49.40;;;;;;4962663;28;20465;-87
2021/06/08 09:16:30;;;;;;;0.10;0.00;;;27.90;49.10;;;;;;5014345;28;20445;-87
2021/06/08 09:18:56;;;;;;;0.82;0.20;;;28.00;48.90;;;;;;4992097;28;20046;-88
2021/06/08 09:21:24;;;;;;;0.35;0.05;;;28.10;48.90;;;;;;4955005;28;20051;-87
2021/06/08 09:23:50;;;;;;;2.03;0.17;;;28.20;48.50;;;;;;4981967;28;20504;-87
2021/06/08 09:26:17;;;;;;;0.73;0.20;;;28.30;48.40;;;;;;4974679;28;20034;-88
2021/06/08 09:28:44;;;;;;;0.22;0.00;;;28.40;48.20;;;;;;4974760;28;20026;-87
2021/06/08 09:31:18;;;;;;;0.68;0.10;;;28.60;48.10;;;;;;4990674;28;20396;-87
2021/06/08 09:33:46;;;;;;;1.10;0.47;;;28.60;47.90;;;;;;4975645;28;20044;-87
2021/06/08 09:36:13;;;;;;;0.88;0.38;;;28.70;47.80;;;;;;4974004;28;20023;-87
2021/06/08 09:38:54;;;;;;;0.10;0.08;;;28.70;47.70;;;;;;4974597;28;20043;-87
2021/06/08 09:41:28;;;;;;;0.40;0.10;;;28.80;47.50;;;;;;4975452;28;20052;-87
2021/06/08 09:43:59;;;;;;;0.15;0.00;;;28.90;47.20;;;;;;4958659;28;20038;-86
2021/06/08 09:46:28;;;;;;;0.20;0.10;;;28.80;47.10;;;;;;4990156;28;20535;-85
2021/06/08 09:48:59;;;;;;;0.65;0.10;;;28.90;47.10;;;;;;4990214;28;20030;-86
2021/06/08 09:51:25;;;;;;;0.40;0.17;;;29.10;46.90;;;;;;4974186;28;20027;-86
2021/06/08 09:53:52;;;;;;;0.50;0.15;;;29.30;46.70;;;;;;4975258;28;20091;-86
2021/06/08 09:56:19;;;;;;;0.47;0.08;;;29.50;46.40;;;;;;4957036;28;20042;-88
2021/06/08 09:58:47;;;;;;;0.00;0.00;;;29.70;46.10;;;;;;4975325;28;20031;-87
2021/06/08 10:01:23;;;;;;;0.20;0.00;;;29.90;45.80;;;;;;4973954;28;20046;-87
2021/06/08 10:03:50;;;;;;;0.35;0.10;;;29.90;45.60;;;;;;4988705;28;20031;-86
2021/06/08 10:06:20;;;;;;;0.20;0.00;;;30.10;45.40;;;;;;4990058;28;20031;-87
2021/06/08 10:09:11;;;;;;;0.40;0.10;;;30.30;45.10;;;;;;4990196;28;20030;-86
2021/06/08 10:11:39;;;;;;;0.40;0.17;;;30.40;44.80;;;;;;4971128;28;20039;-87
2021/06/08 10:14:12;;;;;;;0.10;0.00;;;30.60;44.90;;;;;;4973881;28;20019;-87
2021/06/08 10:16:38;;;;;;;0.90;0.20;;;30.70;44.50;;;;;;4986889;28;20061;-87
2021/06/08 10:19:05;;;;;;;0.43;0.00;;;30.80;44.30;;;;;;4994187;28;20042;-86
2021/06/08 10:21:40;;;;;;;0.08;0.05;;;30.90;44.00;;;;;;4994055;28;20056;-87
2021/06/08 10:24:14;;;;;;;0.28;0.08;;;31.10;43.80;;;;;;4993713;28;20027;-87
2021/06/08 10:26:44;;;;;;;0.20;0.00;;;30.90;43.10;;;;;;4993993;28;20030;-87
2021/06/08 10:29:11;;;;;;;0.28;0.10;;;30.80;42.80;;;;;;4974792;28;20027;-87
2021/06/08 10:31:39;;;;;;;0.43;0.00;;;30.60;42.90;;;;;;4956852;28;20038;-87
2021/06/08 10:34:06;;;;;;;0.17;0.00;;;30.50;43.10;;;;;;4953426;28;20027;-86
2021/06/08 10:36:36;;;;;;;0.30;0.00;;;30.50;43.10;;;;;;4970139;28;20046;-87
2021/06/08 10:39:11;;;;;;;0.28;0.00;;;30.70;43.00;;;;;;4955279;28;20027;-86
2021/06/08 10:41:40;;;;;;;4.32;0.30;;;30.90;42.80;;;;;;4953902;29;20391;-87
2021/06/08 10:44:07;;;;;;;0.17;0.00;;;31.00;42.50;;;;;;4955068;28;20031;-86
2021/06/08 10:46:36;;;;;;;0.03;0.00;;;31.20;42.40;;;;;;4979558;28;20050;-86
2021/06/08 10:49:04;;;;;;;1.13;0.05;;;31.40;42.20;;;;;;5009561;28;20038;-87
2021/06/08 10:51:33;;;;;;;0.10;0.00;;;31.50;41.80;;;;;;4993394;28;20472;-87
2021/06/08 10:53:59;;;;;;;0.20;0.10;;;31.60;41.60;;;;;;5009098;28;20027;-87
2021/06/08 10:56:32;;;;;;;0.20;0.00;;;31.80;41.60;;;;;;4976186;28;20037;-87
2021/06/08 10:59:09;;;;;;;0.00;0.00;;;31.90;41.50;;;;;;4974642;28;20026;-88
2021/06/08 11:04:03;;;;;;;0.00;0.00;;;32.00;40.90;;;;;;4981503;28;20034;-87
2021/06/08 11:06:56;;;;;;;0.25;0.10;;;31.90;40.30;;;;;;4977113;28;20042;-87
2021/06/08 11:09:25;;;;;;;0.00;0.00;;;31.70;40.30;;;;;;4977137;28;20034;-87
2021/06/08 11:11:51;;;;;;;0.10;0.00;;;31.50;40.30;;;;;;4978326;28;20031;-87
2021/06/08 11:14:39;;;;;;;0.00;0.00;;;31.40;40.60;;;;;;4975807;28;20019;-87
2021/06/08 11:17:06;;;;;;;0.30;0.00;;;31.50;40.40;;;;;;4956852;28;20045;-87
2021/06/08 11:19:44;;;;;;;0.47;0.08;;;31.60;40.00;;;;;;4973273;28;20042;-88
2021/06/08 11:22:14;;;;;;;0.30;0.00;;;31.80;39.70;;;;;;4973576;28;20403;-87
2021/06/08 11:24:41;;;;;;;0.20;0.00;;;31.80;39.50;;;;;;4972704;28;20432;-86
2021/06/08 11:27:08;;;;;;;0.17;0.00;;;31.80;39.40;;;;;;4955368;28;20031;-87
2021/06/08 11:29:54;;;;;;;0.10;0.00;;;32.00;39.30;;;;;;4972556;28;20034;-85
2021/06/08 11:32:29;;;;;;;0.00;0.00;;;32.20;39.10;;;;;;4991014;28;20034;-87
2021/06/08 11:35:12;;;;;;;0.17;0.00;;;32.30;38.70;;;;;;4973547;28;20019;-86
2021/06/08 11:38:06;;;;;;;0.20;0.10;;;32.40;38.30;;;;;;5001928;28;20049;-87
2021/06/08 11:40:38;;;;;;;0.20;0.00;;;32.30;38.20;;;;;;4972053;28;20045;-84
2021/06/08 11:43:10;;;;;;;0.20;0.00;;;32.30;38.40;;;;;;4973247;28;20476;-87
2021/06/08 11:45:38;;;;;;;0.10;0.00;;;32.40;38.30;;;;;;4975708;28;20038;-87
2021/06/08 11:48:05;;;;;;;0.40;0.10;;;32.40;38.10;;;;;;4983508;28;20030;-87
2021/06/08 11:50:42;;;;;;;0.10;0.00;;;32.40;38.10;;;;;;4956772;28;20042;-87
2021/06/08 11:53:09;;;;;;;0.10;0.00;;;32.50;37.90;;;;;;4990442;28;20031;-87
2021/06/08 11:55:35;;;;;;;0.08;0.00;;;32.60;37.80;;;;;;4960121;28;20077;-86
2021/06/08 11:58:01;;;;;;;0.10;0.00;;;32.60;37.80;;;;;;4977545;28;20038;-86
2021/06/08 12:00:52;;;;;;;0.20;0.00;;;32.60;37.60;;;;;;4975571;28;20041;-85
2021/06/08 12:03:32;;;;;;;0.35;0.00;;;32.70;37.60;;;;;;4973291;28;20059;-87
2021/06/08 12:05:58;;;;;;;0.10;0.00;;;32.80;37.50;;;;;;4956961;28;20039;-88
2021/06/08 12:08:32;;;;;;;0.40;0.10;;;32.90;37.40;;;;;;4972225;28;20034;-87
2021/06/08 12:11:18;;;;;;;0.50;0.10;;;32.80;36.90;;;;;;4972001;28;20027;-86
2021/06/08 12:13:44;;;;;;;1.88;0.13;;;32.70;37.00;;;;;;4970412;28;20043;-84
2021/06/08 12:16:12;;;;;;;0.03;0.03;;;32.80;37.10;;;;;;4988130;28;20031;-87
2021/06/08 12:18:38;;;;;;;0.05;0.00;;;32.80;36.90;;;;;;4987858;28;20034;-85
2021/06/08 12:21:11;;;;;;;0.10;0.00;;;33.00;36.80;;;;;;4987852;28;20047;-87
2021/06/08 12:23:37;;;;;;;2.17;0.10;;;33.00;36.50;;;;;;4973083;28;20038;-87
2021/06/08 12:26:09;;;;;;;0.03;0.00;;;32.90;36.30;;;;;;4971934;28;20027;-87
2021/06/08 12:28:36;;;;;;;0.20;0.00;;;32.70;35.90;;;;;;4969675;28;20031;-87
2021/06/08 12:31:22;;;;;;;0.15;0.00;;;32.60;36.10;;;;;;4987398;28;20027;-86
2021/06/08 12:33:48;;;;;;;0.20;0.00;;;32.60;36.20;;;;;;4971792;28;20031;-86
2021/06/08 12:36:14;;;;;;;0.10;0.00;;;32.60;36.00;;;;;;4987666;28;20388;-85
2021/06/08 12:39:09;;;;;;;0.35;0.13;;;32.60;36.00;;;;;;4971795;28;20468;-86
2021/06/08 12:41:35;;;;;;;0.10;0.00;;;32.70;36.00;;;;;;4971674;28;20416;-87
2021/06/08 12:44:01;;;;;;;0.10;0.00;;;32.70;35.70;;;;;;4971353;28;20026;-82
2021/06/08 12:46:30;;;;;;;1.65;0.15;;;32.70;35.70;;;;;;4987724;28;20531;-86
2021/06/08 12:49:06;;;;;;;0.00;0.00;;;32.60;35.70;;;;;;4972810;28;20042;-85
2021/06/08 12:51:33;;;;;;;0.20;0.00;;;32.50;35.80;;;;;;4972663;28;20054;-87
2021/06/08 12:53:59;;;;;;;0.22;0.10;;;32.50;35.80;;;;;;4972813;28;20387;-86
2021/06/08 12:56:25;;;;;;;0.32;0.08;;;32.50;36.00;;;;;;4975222;28;20027;-86
2021/06/08 12:58:51;;;;;;;0.25;0.00;;;32.50;35.80;;;;;;4974982;28;20030;-87